sensor_id;sensor_type;location;lat;lon;timestamp;temperature;humidity
8539;DHT22;4307;53.868;11.680;2022-09-17T00:01:26;12.90;99.90
8539;DHT22;4307;53.868;11.680;2022-09-17T00:03:54;12.90;99.90
8539;DHT22;4307;53.868;11.680;2022-09-17T00:06:23;12.90;99.90
8539;DHT22;4307;53.868;11.680;2022-09-17T00:08:50;12.80;99.90
8539;DHT22;4307;53.868;11.680;2022-09-17T00:11:19;12.80;99.90
8539;DHT22;4307;53.868;11.680;2022-09-17T00:13:49;12.80;99.90
8539;DHT22;4307;53.868;11.680;2022-09-17T00:16:23;12.80;99.90
8539;DHT22;4307;53.868;11.680;2022-09-17T00:18:49;12.80;99.90
8539;DHT22;4307;53.868;11.680;2022-09-17T00:21:17;12.80;99.90
8539;DHT22;4307;53.868;11.680;2022-09-17T00:23:44;12.80;99.90
8539;DHT22;4307;53.868;11.680;2022-09-17T00:26:11;12.80;99.90
8539;DHT22;4307;53.868;11.680;2022-09-17T00:28:38;12.80;99.90
8539;DHT22;4307;53.868;11.680;2022-09-17T00:31:08;12.80;99.90
8539;DHT22;4307;53.868;11.680;2022-09-17T00:33:35;12.80;99.90
8539;DHT22;4307;53.868;11.680;2022-09-17T00:36:03;12.80;99.90
8539;DHT22;4307;53.868;11.680;2022-09-17T00:38:30;12.80;99.90
8539;DHT22;4307;53.868;11.680;2022-09-17T00:40:57;12.80;99.90
8539;DHT22;4307;53.868;11.680;2022-09-17T00:43:40;12.80;99.90
8539;DHT22;4307;53.868;11.680;2022-09-17T00:46:20;12.80;99.90
8539;DHT22;4307;53.868;11.680;2022-09-17T00:48:49;12.80;99.90
8539;DHT22;4307;53.868;11.680;2022-09-17T00:51:19;12.90;99.90
8539;DHT22;4307;53.868;11.680;2022-09-17T00:53:46;12.90;99.90
8539;DHT22;4307;53.868;11.680;2022-09-17T00:56:19;12.90;99.90
8539;DHT22;4307;53.868;11.680;2022-09-17T00:58:48;12.90;99.90
8539;DHT22;4307;53.868;11.680;2022-09-17T01:01:17;12.90;99.90
8539;DHT22;4307;53.868;11.680;2022-09-17T01:03:44;12.90;99.90
8539;DHT22;4307;53.868;11.680;2022-09-17T01:06:16;13.00;99.90
8539;DHT22;4307;53.868;11.680;2022-09-17T01:08:57;13.00;99.90
8539;DHT22;4307;53.868;11.680;2022-09-17T01:11:36;13.00;99.90
8539;DHT22;4307;53.868;11.680;2022-09-17T01:14:20;12.90;99.90
8539;DHT22;4307;53.868;11.680;2022-09-17T01:16:58;12.90;99.90
8539;DHT22;4307;53.868;11.680;2022-09-17T01:20:00;12.90;99.90
8539;DHT22;4307;53.868;11.680;2022-09-17T01:22:33;12.90;99.90
8539;DHT22;4307;53.868;11.680;2022-09-17T01:25:20;12.90;99.90
8539;DHT22;4307;53.868;11.680;2022-09-17T01:28:21;12.90;99.90
8539;DHT22;4307;53.868;11.680;2022-09-17T01:31:18;12.90;99.90
8539;DHT22;4307;53.868;11.680;2022-09-17T01:33:52;12.80;99.90
8539;DHT22;4307;53.868;11.680;2022-09-17T01:36:33;12.80;99.90
8539;DHT22;4307;53.868;11.680;2022-09-17T01:39:06;12.80;99.90
8539;DHT22;4307;53.868;11.680;2022-09-17T01:41:39;12.90;99.90
8539;DHT22;4307;53.868;11.680;2022-09-17T01:44:12;12.80;99.90
8539;DHT22;4307;53.868;11.680;2022-09-17T01:46:44;12.80;99.90
8539;DHT22;4307;53.868;11.680;2022-09-17T01:49:15;12.90;99.90
8539;DHT22;4307;53.868;11.680;2022-09-17T01:51:44;12.90;99.90
8539;DHT22;4307;53.868;11.680;2022-09-17T01:54:17;12.90;99.90
8539;DHT22;4307;53.868;11.680;2022-09-17T01:56:49;12.90;99.90
8539;DHT22;4307;53.868;11.680;2022-09-17T01:59:20;12.90;99.90
8539;DHT22;4307;53.868;11.680;2022-09-17T02:01:53;12.90;99.90
8539;DHT22;4307;53.868;11.680;2022-09-17T02:04:25;13.00;99.90
8539;DHT22;4307;53.868;11.680;2022-09-17T02:06:55;12.90;99.90
8539;DHT22;4307;53.868;11.680;2022-09-17T02:09:28;12.90;99.90
8539;DHT22;4307;53.868;11.680;2022-09-17T02:11:59;12.90;99.90
8539;DHT22;4307;53.868;11.680;2022-09-17T02:14:30;12.90;99.90
8539;DHT22;4307;53.868;11.680;2022-09-17T02:17:05;12.80;99.90
8539;DHT22;4307;53.868;11.680;2022-09-17T02:19:36;12.80;99.90
8539;DHT22;4307;53.868;11.680;2022-09-17T02:22:11;12.80;99.90
8539;DHT22;4307;53.868;11.680;2022-09-17T02:24:45;12.80;99.90
8539;DHT22;4307;53.868;11.680;2022-09-17T02:27:19;12.80;99.90
8539;DHT22;4307;53.868;11.680;2022-09-17T02:29:48;12.70;99.90
8539;DHT22;4307;53.868;11.680;2022-09-17T02:32:16;12.70;99.90
8539;DHT22;4307;53.868;11.680;2022-09-17T02:34:43;12.70;99.90
8539;DHT22;4307;53.868;11.680;2022-09-17T02:37:10;12.70;99.90
8539;DHT22;4307;53.868;11.680;2022-09-17T02:39:37;12.70;99.90
8539;DHT22;4307;53.868;11.680;2022-09-17T02:42:10;12.70;99.90
8539;DHT22;4307;53.868;11.680;2022-09-17T02:44:51;12.70;99.90
8539;DHT22;4307;53.868;11.680;2022-09-17T02:47:52;12.70;99.90
8539;DHT22;4307;53.868;11.680;2022-09-17T02:50:50;12.70;99.90
8539;DHT22;4307;53.868;11.680;2022-09-17T02:53:34;12.70;99.90
8539;DHT22;4307;53.868;11.680;2022-09-17T02:56:12;12.70;99.90
8539;DHT22;4307;53.868;11.680;2022-09-17T02:58:46;12.70;99.90
8539;DHT22;4307;53.868;11.680;2022-09-17T03:01:21;12.70;99.90
8539;DHT22;4307;53.868;11.680;2022-09-17T03:03:53;12.70;99.90
8539;DHT22;4307;53.868;11.680;2022-09-17T03:06:21;12.70;99.90
8539;DHT22;4307;53.868;11.680;2022-09-17T03:08:49;12.70;99.90
8539;DHT22;4307;53.868;11.680;2022-09-17T03:11:15;12.70;99.90
8539;DHT22;4307;53.868;11.680;2022-09-17T03:13:42;12.70;99.90
8539;DHT22;4307;53.868;11.680;2022-09-17T03:16:09;12.60;99.90
8539;DHT22;4307;53.868;11.680;2022-09-17T03:18:36;12.60;99.90
8539;DHT22;4307;53.868;11.680;2022-09-17T03:21:04;12.60;99.90
8539;DHT22;4307;53.868;11.680;2022-09-17T03:23:30;12.60;99.90
8539;DHT22;4307;53.868;11.680;2022-09-17T03:25:57;12.60;99.90
8539;DHT22;4307;53.868;11.680;2022-09-17T03:28:24;12.60;99.90
8539;DHT22;4307;53.868;11.680;2022-09-17T03:30:51;12.60;99.90
8539;DHT22;4307;53.868;11.680;2022-09-17T03:33:18;12.70;99.90
8539;DHT22;4307;53.868;11.680;2022-09-17T03:35:45;12.70;99.90
8539;DHT22;4307;53.868;11.680;2022-09-17T03:38:14;12.70;99.90
8539;DHT22;4307;53.868;11.680;2022-09-17T03:40:40;12.70;99.90
8539;DHT22;4307;53.868;11.680;2022-09-17T03:43:07;12.70;99.90
8539;DHT22;4307;53.868;11.680;2022-09-17T03:45:34;12.80;99.90
8539;DHT22;4307;53.868;11.680;2022-09-17T03:48:01;12.80;99.90
8539;DHT22;4307;53.868;11.680;2022-09-17T03:50:27;12.80;99.90
8539;DHT22;4307;53.868;11.680;2022-09-17T03:52:54;12.80;99.90
8539;DHT22;4307;53.868;11.680;2022-09-17T03:55:22;12.80;99.90
8539;DHT22;4307;53.868;11.680;2022-09-17T03:57:49;12.80;99.90
8539;DHT22;4307;53.868;11.680;2022-09-17T04:00:15;12.80;99.90
8539;DHT22;4307;53.868;11.680;2022-09-17T04:02:42;12.80;99.90
8539;DHT22;4307;53.868;11.680;2022-09-17T04:05:09;12.80;99.90
8539;DHT22;4307;53.868;11.680;2022-09-17T04:07:36;12.90;99.90
8539;DHT22;4307;53.868;11.680;2022-09-17T04:10:03;12.80;99.90
8539;DHT22;4307;53.868;11.680;2022-09-17T04:12:32;12.90;99.90
8539;DHT22;4307;53.868;11.680;2022-09-17T04:14:58;12.90;99.90
8539;DHT22;4307;53.868;11.680;2022-09-17T04:17:26;12.90;99.90
8539;DHT22;4307;53.868;11.680;2022-09-17T04:19:53;12.90;99.90
8539;DHT22;4307;53.868;11.680;2022-09-17T04:22:19;12.90;99.90
8539;DHT22;4307;53.868;11.680;2022-09-17T04:24:46;12.90;99.90
8539;DHT22;4307;53.868;11.680;2022-09-17T04:27:13;12.90;99.90
8539;DHT22;4307;53.868;11.680;2022-09-17T04:29:41;12.90;99.90
8539;DHT22;4307;53.868;11.680;2022-09-17T04:32:07;12.90;99.90
8539;DHT22;4307;53.868;11.680;2022-09-17T04:34:34;13.00;99.90
8539;DHT22;4307;53.868;11.680;2022-09-17T04:37:01;13.00;99.90
8539;DHT22;4307;53.868;11.680;2022-09-17T04:39:27;13.00;99.90
8539;DHT22;4307;53.868;11.680;2022-09-17T04:41:54;12.90;99.90
8539;DHT22;4307;53.868;11.680;2022-09-17T04:44:21;13.00;99.90
8539;DHT22;4307;53.868;11.680;2022-09-17T04:46:49;13.00;99.90
8539;DHT22;4307;53.868;11.680;2022-09-17T04:49:15;13.00;99.90
8539;DHT22;4307;53.868;11.680;2022-09-17T04:51:42;13.00;99.90
8539;DHT22;4307;53.868;11.680;2022-09-17T04:54:09;13.00;99.90
8539;DHT22;4307;53.868;11.680;2022-09-17T04:56:35;13.00;99.90
8539;DHT22;4307;53.868;11.680;2022-09-17T04:59:02;13.00;99.90
8539;DHT22;4307;53.868;11.680;2022-09-17T05:01:29;13.00;99.90
8539;DHT22;4307;53.868;11.680;2022-09-17T05:03:57;13.00;99.90
8539;DHT22;4307;53.868;11.680;2022-09-17T05:06:23;13.00;99.90
8539;DHT22;4307;53.868;11.680;2022-09-17T05:08:50;13.00;99.90
8539;DHT22;4307;53.868;11.680;2022-09-17T05:11:16;13.00;99.90
8539;DHT22;4307;53.868;11.680;2022-09-17T05:13:43;13.00;99.90
8539;DHT22;4307;53.868;11.680;2022-09-17T05:16:10;13.00;99.90
8539;DHT22;4307;53.868;11.680;2022-09-17T05:18:36;13.00;99.90
8539;DHT22;4307;53.868;11.680;2022-09-17T05:21:04;13.00;99.90
8539;DHT22;4307;53.868;11.680;2022-09-17T05:23:31;13.00;99.90
8539;DHT22;4307;53.868;11.680;2022-09-17T05:25:58;13.00;99.90
8539;DHT22;4307;53.868;11.680;2022-09-17T05:28:25;13.00;99.90
8539;DHT22;4307;53.868;11.680;2022-09-17T05:30:51;13.00;99.90
8539;DHT22;4307;53.868;11.680;2022-09-17T05:33:18;13.10;99.90
8539;DHT22;4307;53.868;11.680;2022-09-17T05:35:45;13.10;99.90
8539;DHT22;4307;53.868;11.680;2022-09-17T05:38:13;13.10;99.90
8539;DHT22;4307;53.868;11.680;2022-09-17T05:40:40;13.00;99.90
8539;DHT22;4307;53.868;11.680;2022-09-17T05:43:06;13.00;99.90
8539;DHT22;4307;53.868;11.680;2022-09-17T05:45:34;13.00;99.90
8539;DHT22;4307;53.868;11.680;2022-09-17T05:48:03;13.00;99.90
8539;DHT22;4307;53.868;11.680;2022-09-17T05:50:31;13.00;99.90
8539;DHT22;4307;53.868;11.680;2022-09-17T05:53:03;13.00;99.90
8539;DHT22;4307;53.868;11.680;2022-09-17T05:55:31;13.00;99.90
8539;DHT22;4307;53.868;11.680;2022-09-17T05:57:59;13.00;99.90
8539;DHT22;4307;53.868;11.680;2022-09-17T06:00:26;13.00;99.90
8539;DHT22;4307;53.868;11.680;2022-09-17T06:02:54;13.00;99.90
8539;DHT22;4307;53.868;11.680;2022-09-17T06:05:22;13.10;99.90
8539;DHT22;4307;53.868;11.680;2022-09-17T06:07:49;13.10;99.90
8539;DHT22;4307;53.868;11.680;2022-09-17T06:10:16;13.10;99.90
8539;DHT22;4307;53.868;11.680;2022-09-17T06:12:44;13.10;99.90
8539;DHT22;4307;53.868;11.680;2022-09-17T06:15:11;13.00;99.90
8539;DHT22;4307;53.868;11.680;2022-09-17T06:17:39;13.00;99.90
8539;DHT22;4307;53.868;11.680;2022-09-17T06:20:06;13.10;99.90
8539;DHT22;4307;53.868;11.680;2022-09-17T06:22:34;13.00;99.90
8539;DHT22;4307;53.868;11.680;2022-09-17T06:25:00;13.00;99.90
8539;DHT22;4307;53.868;11.680;2022-09-17T06:27:29;13.00;99.90
8539;DHT22;4307;53.868;11.680;2022-09-17T06:29:58;13.00;99.90
8539;DHT22;4307;53.868;11.680;2022-09-17T06:32:24;13.00;99.90
8539;DHT22;4307;53.868;11.680;2022-09-17T06:34:51;13.00;99.90
8539;DHT22;4307;53.868;11.680;2022-09-17T06:37:18;13.10;99.90
8539;DHT22;4307;53.868;11.680;2022-09-17T06:39:45;13.20;99.90
8539;DHT22;4307;53.868;11.680;2022-09-17T06:42:11;13.30;99.90
8539;DHT22;4307;53.868;11.680;2022-09-17T06:44:38;13.40;99.90
8539;DHT22;4307;53.868;11.680;2022-09-17T06:47:06;13.40;99.90
8539;DHT22;4307;53.868;11.680;2022-09-17T06:49:33;13.40;99.90
8539;DHT22;4307;53.868;11.680;2022-09-17T06:52:00;13.40;99.90
8539;DHT22;4307;53.868;11.680;2022-09-17T06:54:26;13.40;99.90
8539;DHT22;4307;53.868;11.680;2022-09-17T06:56:53;13.40;99.90
8539;DHT22;4307;53.868;11.680;2022-09-17T06:59:19;13.40;99.90
8539;DHT22;4307;53.868;11.680;2022-09-17T07:01:46;13.40;99.90
8539;DHT22;4307;53.868;11.680;2022-09-17T07:04:15;13.40;99.90
8539;DHT22;4307;53.868;11.680;2022-09-17T07:06:42;13.40;99.90
8539;DHT22;4307;53.868;11.680;2022-09-17T07:09:09;13.50;99.90
8539;DHT22;4307;53.868;11.680;2022-09-17T07:11:36;13.60;99.90
8539;DHT22;4307;53.868;11.680;2022-09-17T07:14:03;13.70;99.90
8539;DHT22;4307;53.868;11.680;2022-09-17T07:16:31;13.70;99.90
8539;DHT22;4307;53.868;11.680;2022-09-17T07:19:00;13.70;99.90
8539;DHT22;4307;53.868;11.680;2022-09-17T07:21:28;13.80;99.90
8539;DHT22;4307;53.868;11.680;2022-09-17T07:23:55;13.80;99.90
8539;DHT22;4307;53.868;11.680;2022-09-17T07:26:22;13.90;99.90
8539;DHT22;4307;53.868;11.680;2022-09-17T07:28:49;13.90;99.90
8539;DHT22;4307;53.868;11.680;2022-09-17T07:31:15;13.90;99.90
8539;DHT22;4307;53.868;11.680;2022-09-17T07:33:43;13.90;99.90
8539;DHT22;4307;53.868;11.680;2022-09-17T07:36:11;14.00;99.90
8539;DHT22;4307;53.868;11.680;2022-09-17T07:38:39;14.00;99.90
8539;DHT22;4307;53.868;11.680;2022-09-17T07:41:08;14.10;99.90
8539;DHT22;4307;53.868;11.680;2022-09-17T07:43:36;14.10;99.90
8539;DHT22;4307;53.868;11.680;2022-09-17T07:46:04;14.20;99.90
8539;DHT22;4307;53.868;11.680;2022-09-17T07:48:32;14.20;99.90
8539;DHT22;4307;53.868;11.680;2022-09-17T07:50:58;14.30;99.90
8539;DHT22;4307;53.868;11.680;2022-09-17T07:53:26;14.40;99.90
8539;DHT22;4307;53.868;11.680;2022-09-17T07:55:55;14.50;99.90
8539;DHT22;4307;53.868;11.680;2022-09-17T07:58:26;14.70;99.90
8539;DHT22;4307;53.868;11.680;2022-09-17T08:00:59;14.80;99.90
8539;DHT22;4307;53.868;11.680;2022-09-17T08:03:25;14.90;99.90
8539;DHT22;4307;53.868;11.680;2022-09-17T08:05:52;15.00;99.90
8539;DHT22;4307;53.868;11.680;2022-09-17T08:08:19;15.20;99.90
8539;DHT22;4307;53.868;11.680;2022-09-17T08:10:45;15.30;99.90
8539;DHT22;4307;53.868;11.680;2022-09-17T08:13:13;15.50;99.90
8539;DHT22;4307;53.868;11.680;2022-09-17T08:15:40;15.70;99.90
8539;DHT22;4307;53.868;11.680;2022-09-17T08:18:07;16.10;99.90
8539;DHT22;4307;53.868;11.680;2022-09-17T08:20:33;16.40;99.90
8539;DHT22;4307;53.868;11.680;2022-09-17T08:23:00;16.50;99.90
8539;DHT22;4307;53.868;11.680;2022-09-17T08:25:27;16.70;99.90
8539;DHT22;4307;53.868;11.680;2022-09-17T08:27:54;16.80;99.90
8539;DHT22;4307;53.868;11.680;2022-09-17T08:30:22;16.70;99.90
8539;DHT22;4307;53.868;11.680;2022-09-17T08:32:49;16.80;99.90
8539;DHT22;4307;53.868;11.680;2022-09-17T08:35:16;16.80;99.90
8539;DHT22;4307;53.868;11.680;2022-09-17T08:37:42;16.80;99.90
8539;DHT22;4307;53.868;11.680;2022-09-17T08:40:14;16.80;99.90
8539;DHT22;4307;53.868;11.680;2022-09-17T08:42:50;16.90;99.90
8539;DHT22;4307;53.868;11.680;2022-09-17T08:45:18;16.80;99.90
8539;DHT22;4307;53.868;11.680;2022-09-17T08:47:48;16.80;99.90
8539;DHT22;4307;53.868;11.680;2022-09-17T08:50:24;16.80;99.90
8539;DHT22;4307;53.868;11.680;2022-09-17T08:53:07;16.90;99.90
8539;DHT22;4307;53.868;11.680;2022-09-17T08:55:41;17.00;99.90
8539;DHT22;4307;53.868;11.680;2022-09-17T09:01:31;17.30;99.90
8539;DHT22;4307;53.868;11.680;2022-09-17T09:04:24;17.40;99.90
8539;DHT22;4307;53.868;11.680;2022-09-17T09:07:00;17.40;99.90
8539;DHT22;4307;53.868;11.680;2022-09-17T09:09:33;17.30;99.90
8539;DHT22;4307;53.868;11.680;2022-09-17T09:12:04;17.20;99.90
8539;DHT22;4307;53.868;11.680;2022-09-17T09:14:36;17.10;99.90
8539;DHT22;4307;53.868;11.680;2022-09-17T09:17:07;17.10;99.90
8539;DHT22;4307;53.868;11.680;2022-09-17T09:19:41;17.10;99.90
8539;DHT22;4307;53.868;11.680;2022-09-17T09:22:15;17.10;99.90
8539;DHT22;4307;53.868;11.680;2022-09-17T09:24:50;17.00;99.90
8539;DHT22;4307;53.868;11.680;2022-09-17T09:27:22;16.90;99.90
8539;DHT22;4307;53.868;11.680;2022-09-17T09:29:58;16.90;99.90
8539;DHT22;4307;53.868;11.680;2022-09-17T09:32:37;16.80;99.90
8539;DHT22;4307;53.868;11.680;2022-09-17T09:35:17;16.60;99.90
8539;DHT22;4307;53.868;11.680;2022-09-17T09:37:51;16.50;99.90
8539;DHT22;4307;53.868;11.680;2022-09-17T09:40:29;16.50;99.90
8539;DHT22;4307;53.868;11.680;2022-09-17T09:43:00;16.50;99.90
8539;DHT22;4307;53.868;11.680;2022-09-17T09:45:43;16.60;99.90
8539;DHT22;4307;53.868;11.680;2022-09-17T09:48:18;16.70;99.90
8539;DHT22;4307;53.868;11.680;2022-09-17T09:51:05;16.80;99.90
8539;DHT22;4307;53.868;11.680;2022-09-17T09:53:44;16.90;99.90
8539;DHT22;4307;53.868;11.680;2022-09-17T09:56:32;16.90;99.90
8539;DHT22;4307;53.868;11.680;2022-09-17T09:59:06;16.90;99.90
8539;DHT22;4307;53.868;11.680;2022-09-17T10:01:33;16.80;99.90
8539;DHT22;4307;53.868;11.680;2022-09-17T10:04:15;16.80;99.90
8539;DHT22;4307;53.868;11.680;2022-09-17T10:06:43;16.90;99.90
8539;DHT22;4307;53.868;11.680;2022-09-17T10:09:13;16.90;99.90
8539;DHT22;4307;53.868;11.680;2022-09-17T10:11:40;17.00;99.90
8539;DHT22;4307;53.868;11.680;2022-09-17T10:14:21;17.10;99.90
8539;DHT22;4307;53.868;11.680;2022-09-17T10:16:48;17.10;99.90
8539;DHT22;4307;53.868;11.680;2022-09-17T10:19:18;17.20;99.90
8539;DHT22;4307;53.868;11.680;2022-09-17T10:21:50;17.20;99.90
8539;DHT22;4307;53.868;11.680;2022-09-17T10:24:22;17.10;99.80
8539;DHT22;4307;53.868;11.680;2022-09-17T10:26:50;17.10;99.90
8539;DHT22;4307;53.868;11.680;2022-09-17T10:29:18;17.10;99.70
8539;DHT22;4307;53.868;11.680;2022-09-17T10:31:47;17.10;99.50
8539;DHT22;4307;53.868;11.680;2022-09-17T10:34:22;17.10;99.70
8539;DHT22;4307;53.868;11.680;2022-09-17T10:36:52;17.20;99.60
8539;DHT22;4307;53.868;11.680;2022-09-17T10:39:29;17.30;99.70
8539;DHT22;4307;53.868;11.680;2022-09-17T10:41:58;17.30;99.00
8539;DHT22;4307;53.868;11.680;2022-09-17T10:44:26;17.20;98.80
8539;DHT22;4307;53.868;11.680;2022-09-17T10:46:54;17.20;99.20
8539;DHT22;4307;53.868;11.680;2022-09-17T10:49:33;17.40;99.30
8539;DHT22;4307;53.868;11.680;2022-09-17T10:52:09;17.60;98.90
8539;DHT22;4307;53.868;11.680;2022-09-17T10:54:57;17.80;98.90
8539;DHT22;4307;53.868;11.680;2022-09-17T10:57:32;18.10;98.70
8539;DHT22;4307;53.868;11.680;2022-09-17T11:00:09;18.30;98.30
8539;DHT22;4307;53.868;11.680;2022-09-17T11:03:07;18.50;98.10
8539;DHT22;4307;53.868;11.680;2022-09-17T11:05:44;18.60;96.50
8539;DHT22;4307;53.868;11.680;2022-09-17T11:08:21;18.70;96.80
8539;DHT22;4307;53.868;11.680;2022-09-17T11:10:56;19.00;96.40
8539;DHT22;4307;53.868;11.680;2022-09-17T11:13:30;19.30;95.80
8539;DHT22;4307;53.868;11.680;2022-09-17T11:16:10;19.50;95.10
8539;DHT22;4307;53.868;11.680;2022-09-17T11:18:40;19.60;94.60
8539;DHT22;4307;53.868;11.680;2022-09-17T11:21:39;19.50;93.80
8539;DHT22;4307;53.868;11.680;2022-09-17T11:24:27;19.40;94.20
8539;DHT22;4307;53.868;11.680;2022-09-17T11:27:04;19.50;94.30
8539;DHT22;4307;53.868;11.680;2022-09-17T11:29:55;19.50;93.20
8539;DHT22;4307;53.868;11.680;2022-09-17T11:32:39;19.10;92.90
8539;DHT22;4307;53.868;11.680;2022-09-17T11:35:14;18.60;93.30
8539;DHT22;4307;53.868;11.680;2022-09-17T11:37:45;18.40;93.50
8539;DHT22;4307;53.868;11.680;2022-09-17T11:40:18;18.10;93.90
8539;DHT22;4307;53.868;11.680;2022-09-17T11:42:50;18.00;94.30
8539;DHT22;4307;53.868;11.680;2022-09-17T11:45:22;17.90;94.20
8539;DHT22;4307;53.868;11.680;2022-09-17T11:47:55;17.90;94.40
8539;DHT22;4307;53.868;11.680;2022-09-17T11:50:26;17.80;94.20
8539;DHT22;4307;53.868;11.680;2022-09-17T11:53:02;17.70;94.40
8539;DHT22;4307;53.868;11.680;2022-09-17T11:55:34;17.70;94.40
8539;DHT22;4307;53.868;11.680;2022-09-17T11:58:10;17.70;94.40
8539;DHT22;4307;53.868;11.680;2022-09-17T12:00:43;17.70;94.50
8539;DHT22;4307;53.868;11.680;2022-09-17T12:03:17;17.70;94.50
8539;DHT22;4307;53.868;11.680;2022-09-17T12:05:50;17.70;94.60
8539;DHT22;4307;53.868;11.680;2022-09-17T12:08:21;17.70;94.70
8539;DHT22;4307;53.868;11.680;2022-09-17T12:10:56;17.80;94.90
8539;DHT22;4307;53.868;11.680;2022-09-17T12:13:31;17.80;94.60
8539;DHT22;4307;53.868;11.680;2022-09-17T12:16:09;17.70;94.40
8539;DHT22;4307;53.868;11.680;2022-09-17T12:18:48;17.70;94.30
8539;DHT22;4307;53.868;11.680;2022-09-17T12:21:19;17.70;94.30
8539;DHT22;4307;53.868;11.680;2022-09-17T12:23:51;17.70;94.40
8539;DHT22;4307;53.868;11.680;2022-09-17T12:26:29;17.80;94.30
8539;DHT22;4307;53.868;11.680;2022-09-17T12:29:04;17.70;94.30
8539;DHT22;4307;53.868;11.680;2022-09-17T12:31:39;17.70;94.50
8539;DHT22;4307;53.868;11.680;2022-09-17T12:34:21;17.60;94.50
8539;DHT22;4307;53.868;11.680;2022-09-17T12:36:56;17.60;94.10
8539;DHT22;4307;53.868;11.680;2022-09-17T12:39:55;17.60;94.40
8539;DHT22;4307;53.868;11.680;2022-09-17T12:42:37;17.70;94.70
8539;DHT22;4307;53.868;11.680;2022-09-17T12:45:19;18.10;95.00
8539;DHT22;4307;53.868;11.680;2022-09-17T12:48:12;19.10;95.00
8539;DHT22;4307;53.868;11.680;2022-09-17T12:50:52;19.90;94.00
8539;DHT22;4307;53.868;11.680;2022-09-17T12:53:26;20.00;92.80
8539;DHT22;4307;53.868;11.680;2022-09-17T12:56:02;20.10;93.20
8539;DHT22;4307;53.868;11.680;2022-09-17T12:58:42;20.00;93.00
8539;DHT22;4307;53.868;11.680;2022-09-17T13:01:18;19.70;92.90
8539;DHT22;4307;53.868;11.680;2022-09-17T13:03:50;19.50;92.90
8539;DHT22;4307;53.868;11.680;2022-09-17T13:06:35;19.00;92.90
8539;DHT22;4307;53.868;11.680;2022-09-17T13:09:33;18.50;93.40
8539;DHT22;4307;53.868;11.680;2022-09-17T13:12:08;18.20;93.70
8539;DHT22;4307;53.868;11.680;2022-09-17T13:15:05;18.00;93.90
8539;DHT22;4307;53.868;11.680;2022-09-17T13:17:41;17.90;94.40
8539;DHT22;4307;53.868;11.680;2022-09-17T13:20:14;17.90;94.70
8539;DHT22;4307;53.868;11.680;2022-09-17T13:22:45;18.00;94.80
8539;DHT22;4307;53.868;11.680;2022-09-17T13:25:13;17.90;94.50
8539;DHT22;4307;53.868;11.680;2022-09-17T13:27:40;17.90;94.70
8539;DHT22;4307;53.868;11.680;2022-09-17T13:30:10;17.90;94.80
8539;DHT22;4307;53.868;11.680;2022-09-17T13:32:42;17.90;95.00
8539;DHT22;4307;53.868;11.680;2022-09-17T13:38:09;18.00;94.80
8539;DHT22;4307;53.868;11.680;2022-09-17T13:40:36;18.00;94.80
8539;DHT22;4307;53.868;11.680;2022-09-17T13:43:06;18.00;94.80
8539;DHT22;4307;53.868;11.680;2022-09-17T13:48:52;17.50;94.90
8539;DHT22;4307;53.868;11.680;2022-09-17T13:51:42;17.30;95.20
8539;DHT22;4307;53.868;11.680;2022-09-17T13:54:11;17.10;95.90
8539;DHT22;4307;53.868;11.680;2022-09-17T13:56:41;17.00;96.40
8539;DHT22;4307;53.868;11.680;2022-09-17T13:59:12;17.40;97.10
8539;DHT22;4307;53.868;11.680;2022-09-17T14:05:20;17.70;97.30
8539;DHT22;4307;53.868;11.680;2022-09-17T14:07:49;17.60;97.40
8539;DHT22;4307;53.868;11.680;2022-09-17T14:10:50;17.40;97.50
8539;DHT22;4307;53.868;11.680;2022-09-17T14:16:31;17.20;98.20
8539;DHT22;4307;53.868;11.680;2022-09-17T14:19:03;17.10;98.60
8539;DHT22;4307;53.868;11.680;2022-09-17T14:21:33;17.10;98.70
8539;DHT22;4307;53.868;11.680;2022-09-17T14:24:02;17.00;99.00
8539;DHT22;4307;53.868;11.680;2022-09-17T14:27:05;17.00;99.40
8539;DHT22;4307;53.868;11.680;2022-09-17T14:30:03;16.90;99.90
8539;DHT22;4307;53.868;11.680;2022-09-17T14:32:35;16.80;99.90
8539;DHT22;4307;53.868;11.680;2022-09-17T14:35:18;16.70;99.90
8539;DHT22;4307;53.868;11.680;2022-09-17T14:37:51;16.70;99.90
8539;DHT22;4307;53.868;11.680;2022-09-17T14:40:20;16.70;99.90
8539;DHT22;4307;53.868;11.680;2022-09-17T14:42:50;16.70;99.90
8539;DHT22;4307;53.868;11.680;2022-09-17T14:45:21;16.70;99.90
8539;DHT22;4307;53.868;11.680;2022-09-17T14:47:48;16.70;99.90
8539;DHT22;4307;53.868;11.680;2022-09-17T14:50:20;16.70;99.90
8539;DHT22;4307;53.868;11.680;2022-09-17T14:52:49;16.70;99.90
8539;DHT22;4307;53.868;11.680;2022-09-17T14:55:18;16.70;99.90
8539;DHT22;4307;53.868;11.680;2022-09-17T14:57:46;16.70;99.90
8539;DHT22;4307;53.868;11.680;2022-09-17T15:00:20;16.70;99.90
8539;DHT22;4307;53.868;11.680;2022-09-17T15:02:52;16.70;99.90
8539;DHT22;4307;53.868;11.680;2022-09-17T15:05:26;16.70;99.90
8539;DHT22;4307;53.868;11.680;2022-09-17T15:08:07;16.80;99.90
8539;DHT22;4307;53.868;11.680;2022-09-17T15:10:45;17.00;99.90
8539;DHT22;4307;53.868;11.680;2022-09-17T15:13:14;17.00;99.90
8539;DHT22;4307;53.868;11.680;2022-09-17T15:15:50;17.00;99.90
8539;DHT22;4307;53.868;11.680;2022-09-17T15:18:18;17.10;99.90
8539;DHT22;4307;53.868;11.680;2022-09-17T15:20:47;17.20;99.90
8539;DHT22;4307;53.868;11.680;2022-09-17T15:23:20;17.20;99.90
8539;DHT22;4307;53.868;11.680;2022-09-17T15:25:51;17.30;99.90
8539;DHT22;4307;53.868;11.680;2022-09-17T15:28:26;17.30;99.90
8539;DHT22;4307;53.868;11.680;2022-09-17T15:30:53;17.30;99.90
8539;DHT22;4307;53.868;11.680;2022-09-17T15:33:20;17.20;99.90
8539;DHT22;4307;53.868;11.680;2022-09-17T15:36:00;17.00;99.90
8539;DHT22;4307;53.868;11.680;2022-09-17T15:38:29;16.90;99.90
8539;DHT22;4307;53.868;11.680;2022-09-17T15:41:25;16.80;99.90
8539;DHT22;4307;53.868;11.680;2022-09-17T15:43:53;16.70;99.90
8539;DHT22;4307;53.868;11.680;2022-09-17T15:46:22;16.60;99.90
8539;DHT22;4307;53.868;11.680;2022-09-17T15:48:51;16.60;99.90
8539;DHT22;4307;53.868;11.680;2022-09-17T15:51:23;16.60;99.90
8539;DHT22;4307;53.868;11.680;2022-09-17T15:53:54;16.50;99.90
8539;DHT22;4307;53.868;11.680;2022-09-17T15:56:23;16.50;99.90
8539;DHT22;4307;53.868;11.680;2022-09-17T15:58:54;16.50;99.90
8539;DHT22;4307;53.868;11.680;2022-09-17T16:04:24;16.40;99.90
8539;DHT22;4307;53.868;11.680;2022-09-17T16:09:44;16.30;99.90
8539;DHT22;4307;53.868;11.680;2022-09-17T16:12:14;16.30;99.90
8539;DHT22;4307;53.868;11.680;2022-09-17T16:14:45;16.30;99.90
8539;DHT22;4307;53.868;11.680;2022-09-17T16:17:22;16.20;99.90
8539;DHT22;4307;53.868;11.680;2022-09-17T16:19:49;16.20;99.90
8539;DHT22;4307;53.868;11.680;2022-09-17T16:22:15;16.10;99.90
8539;DHT22;4307;53.868;11.680;2022-09-17T16:24:43;16.10;99.90
8539;DHT22;4307;53.868;11.680;2022-09-17T16:27:12;16.00;99.90
8539;DHT22;4307;53.868;11.680;2022-09-17T16:29:41;16.00;99.90
8539;DHT22;4307;53.868;11.680;2022-09-17T16:32:09;15.90;99.90
8539;DHT22;4307;53.868;11.680;2022-09-17T16:34:36;15.90;99.90
8539;DHT22;4307;53.868;11.680;2022-09-17T16:37:03;15.90;99.90